Time;durP1;ratioP1;P1;durP2;ratioP2;P2;SDS_P1;SDS_P2;PMS_P1;PMS_P2;Temp;Humidity;BMP_temperature;BMP_pressure;BME280_temperature;BME280_humidity;BME280_pressure;Samples;Min_cycle;Max_cycle;Signal;HPM_P1;HPM_P2
2021/05/03 00:01:10;;;;;;;7.27;6.40;;;6.20;99.90;;;;;;4931704;28;20230;-90
2021/05/03 00:03:36;;;;;;;7.40;6.50;;;6.10;99.90;;;;;;4934636;28;20187;-89
2021/05/03 00:06:02;;;;;;;6.77;6.13;;;6.10;99.90;;;;;;4914929;29;20666;-90
2021/05/03 00:08:28;;;;;;;7.37;6.57;;;5.90;99.90;;;;;;4926353;28;20581;-89
2021/05/03 00:10:53;;;;;;;7.07;6.37;;;5.70;99.90;;;;;;4915564;28;20210;-89
2021/05/03 00:13:20;;;;;;;8.23;6.87;;;5.60;99.90;;;;;;4932978;28;21008;-89
2021/05/03 00:15:46;;;;;;;7.03;6.37;;;5.60;99.90;;;;;;4917194;28;20249;-87
2021/05/03 00:18:12;;;;;;;6.97;6.30;;;5.50;99.90;;;;;;4934900;28;20442;-87
2021/05/03 00:20:38;;;;;;;7.13;6.43;;;5.50;99.90;;;;;;4917646;28;21274;-87
2021/05/03 00:23:04;;;;;;;7.00;6.40;;;5.40;99.90;;;;;;4929672;28;20465;-87
2021/05/03 00:25:30;;;;;;;7.50;6.63;;;5.40;99.90;;;;;;4934767;28;21541;-87
2021/05/03 00:27:55;;;;;;;8.40;7.00;;;5.40;99.90;;;;;;4931381;28;20202;-87
2021/05/03 00:30:21;;;;;;;7.80;7.00;;;5.30;99.90;;;;;;4923377;28;20210;-87
2021/05/03 00:32:47;;;;;;;6.43;5.83;;;5.30;99.90;;;;;;4916358;28;20190;-87
2021/05/03 00:35:15;;;;;;;8.13;7.20;;;5.20;99.90;;;;;;4918167;28;20451;-87
2021/05/03 00:37:41;;;;;;;8.10;6.97;;;5.30;99.90;;;;;;4914580;28;20446;-88
2021/05/03 00:40:08;;;;;;;8.17;7.43;;;5.30;99.90;;;;;;4928649;28;21046;-87
2021/05/03 00:42:35;;;;;;;8.40;7.60;;;5.30;99.90;;;;;;4928815;28;20462;-89
2021/05/03 00:45:12;;;;;;;11.07;9.97;;;5.20;99.90;;;;;;4932039;28;20525;-88
2021/05/03 00:47:39;;;;;;;9.60;7.40;;;5.20;99.90;;;;;;4915555;28;20465;-89
2021/05/03 00:50:06;;;;;;;8.57;7.77;;;5.10;99.90;;;;;;4933893;28;20478;-88
2021/05/03 00:52:32;;;;;;;9.30;8.27;;;5.10;99.90;;;;;;4935018;28;20465;-89
2021/05/03 00:54:58;;;;;;;9.20;8.30;;;5.10;99.90;;;;;;4913262;28;20463;-89
2021/05/03 00:57:24;;;;;;;8.63;7.83;;;4.90;99.90;;;;;;4917576;29;20195;-88
2021/05/03 00:59:50;;;;;;;9.43;7.93;;;4.90;99.90;;;;;;4918560;28;20245;-89
2021/05/03 01:02:16;;;;;;;9.37;8.50;;;4.80;99.90;;;;;;4915547;28;20478;-89
2021/05/03 01:04:41;;;;;;;8.77;7.93;;;4.80;99.90;;;;;;4932194;28;20485;-89
2021/05/03 01:07:07;;;;;;;8.03;7.23;;;4.70;99.90;;;;;;4918498;28;20218;-89
2021/05/03 01:09:33;;;;;;;9.63;8.50;;;4.80;99.90;;;;;;4933237;28;20227;-90
2021/05/03 01:11:59;;;;;;;9.17;8.27;;;4.70;99.90;;;;;;4933538;28;20537;-91
2021/05/03 01:14:25;;;;;;;9.80;7.80;;;4.70;99.90;;;;;;4931148;28;20458;-92
2021/05/03 01:16:51;;;;;;;8.90;7.70;;;4.70;99.90;;;;;;4936406;28;20448;-91
2021/05/03 01:19:21;;;;;;;9.77;8.77;;;4.70;99.90;;;;;;4923509;28;20195;-90
2021/05/03 01:21:50;;;;;;;8.90;7.97;;;4.70;99.90;;;;;;4911398;28;20620;-91
2021/05/03 01:24:19;;;;;;;9.50;8.50;;;4.50;99.90;;;;;;4941113;28;20459;-91
2021/05/03 01:26:46;;;;;;;9.60;8.70;;;4.50;99.90;;;;;;4922101;29;20438;-91
2021/05/03 01:29:13;;;;;;;9.70;8.70;;;4.60;99.90;;;;;;4937499;28;20474;-91
2021/05/03 01:31:39;;;;;;;10.17;9.07;;;4.60;99.90;;;;;;4925330;29;20442;-90
2021/05/03 01:36:41;;;;;;;10.60;9.53;;;4.70;99.90;;;;;;4943992;28;20438;-93
2021/05/03 01:39:10;;;;;;;12.90;9.37;;;4.70;99.90;;;;;;4929751;29;20550;-93
2021/05/03 01:41:36;;;;;;;10.20;9.20;;;4.70;99.90;;;;;;4939466;28;20530;-90
2021/05/03 01:44:03;;;;;;;11.50;10.40;;;4.70;99.90;;;;;;4924357;28;20542;-91
2021/05/03 01:46:30;;;;;;;10.70;9.60;;;4.80;99.90;;;;;;4918933;28;21023;-92
2021/05/03 01:48:59;;;;;;;11.87;10.60;;;4.80;99.90;;;;;;4923875;29;20475;-92
2021/05/03 01:51:25;;;;;;;11.60;10.40;;;4.80;99.90;;;;;;4938140;28;20521;-92
2021/05/03 01:54:08;;;;;;;10.30;9.00;;;4.80;99.90;;;;;;4944283;28;20968;-92
2021/05/03 01:56:34;;;;;;;10.37;9.37;;;4.80;99.90;;;;;;4928107;28;20450;-93
2021/05/03 01:59:00;;;;;;;11.57;10.37;;;4.80;99.90;;;;;;4925129;28;20182;-92
2021/05/03 02:01:26;;;;;;;9.73;8.83;;;4.70;99.90;;;;;;4937578;28;21013;-93
2021/05/03 02:03:51;;;;;;;11.40;9.97;;;4.80;99.90;;;;;;4921920;28;20457;-92
2021/05/03 02:06:17;;;;;;;11.13;9.93;;;4.70;99.90;;;;;;4940313;28;20663;-91
2021/05/03 02:08:44;;;;;;;12.50;11.10;;;4.60;99.90;;;;;;4925565;28;20221;-92
2021/05/03 02:11:12;;;;;;;11.93;10.83;;;4.60;99.90;;;;;;4941625;28;20569;-92
2021/05/03 02:13:38;;;;;;;12.30;10.47;;;4.50;99.90;;;;;;4944023;28;20478;-91
2021/05/03 02:16:05;;;;;;;12.43;11.10;;;4.50;99.90;;;;;;4936193;28;20483;-92
2021/05/03 02:18:30;;;;;;;14.73;10.43;;;4.50;99.90;;;;;;4941091;28;20489;-92
2021/05/03 02:20:56;;;;;;;12.27;11.07;;;4.50;99.90;;;;;;4923117;29;20446;-89
2021/05/03 02:23:22;;;;;;;11.53;10.43;;;4.40;99.90;;;;;;4923308;28;20194;-89
2021/05/03 02:25:47;;;;;;;11.87;10.57;;;4.40;99.90;;;;;;4923796;28;20203;-89
2021/05/03 02:28:13;;;;;;;12.80;10.97;;;4.40;99.90;;;;;;4920984;28;20191;-89
2021/05/03 02:30:39;;;;;;;11.30;10.20;;;4.40;99.90;;;;;;4931594;28;20202;-90
2021/05/03 02:33:07;;;;;;;12.70;11.07;;;4.40;99.90;;;;;;4921284;29;20191;-89
2021/05/03 02:35:34;;;;;;;11.73;10.53;;;4.50;99.90;;;;;;4925033;28;20825;-89
2021/05/03 02:38:01;;;;;;;14.10;10.50;;;4.50;99.90;;;;;;4939062;28;20446;-89
2021/05/03 02:40:29;;;;;;;13.47;10.87;;;4.50;99.90;;;;;;4923645;28;20466;-88
2021/05/03 02:42:58;;;;;;;12.47;11.13;;;4.40;99.90;;;;;;4925250;29;20492;-89
2021/05/03 02:45:25;;;;;;;14.90;12.63;;;4.40;99.90;;;;;;4922330;28;20734;-90
2021/05/03 02:47:51;;;;;;;14.73;11.90;;;4.40;99.90;;;;;;4941720;28;20483;-88
2021/05/03 02:50:19;;;;;;;12.90;11.30;;;4.40;99.90;;;;;;4923235;28;20964;-88
2021/05/03 02:52:44;;;;;;;13.83;12.40;;;4.30;99.90;;;;;;4940484;28;20445;-88
2021/05/03 02:55:11;;;;;;;14.17;12.27;;;4.30;99.90;;;;;;4925808;28;20961;-88
2021/05/03 02:57:38;;;;;;;13.90;12.33;;;4.20;99.90;;;;;;4923070;28;20179;-88
2021/05/03 03:00:06;;;;;;;15.70;13.07;;;4.20;99.90;;;;;;4924408;29;20515;-89
2021/05/03 03:02:34;;;;;;;14.50;13.00;;;4.20;99.90;;;;;;4940376;28;20442;-90
2021/05/03 03:05:04;;;;;;;13.77;12.43;;;4.10;99.90;;;;;;4941625;28;20486;-90
2021/05/03 03:07:32;;;;;;;13.53;12.10;;;4.10;99.90;;;;;;4924695;28;20433;-90
2021/05/03 03:09:58;;;;;;;13.90;12.50;;;4.10;99.90;;;;;;4941955;28;21000;-90
2021/05/03 03:12:28;;;;;;;13.60;12.20;;;4.00;99.90;;;;;;4939694;28;20255;-91
2021/05/03 03:14:54;;;;;;;14.00;11.90;;;4.00;99.90;;;;;;4925439;28;20949;-90
2021/05/03 03:17:20;;;;;;;14.70;12.83;;;4.00;99.90;;;;;;4941644;28;20186;-91
2021/05/03 03:19:46;;;;;;;13.57;12.20;;;4.00;99.90;;;;;;4945378;28;20250;-90
2021/05/03 03:22:12;;;;;;;13.73;11.93;;;4.00;99.90;;;;;;4938841;28;20441;-89
2021/05/03 03:24:38;;;;;;;15.07;12.03;;;4.00;99.90;;;;;;4923506;29;20452;-89
2021/05/03 03:27:04;;;;;;;14.40;12.23;;;4.00;99.90;;;;;;4921298;28;20317;-89
2021/05/03 03:29:30;;;;;;;13.17;11.87;;;4.00;99.90;;;;;;4937299;28;20224;-89
2021/05/03 03:31:56;;;;;;;12.13;10.93;;;4.00;99.90;;;;;;4916648;28;20515;-89
2021/05/03 03:34:22;;;;;;;17.33;12.30;;;4.00;99.90;;;;;;4939266;28;20451;-89
2021/05/03 03:36:47;;;;;;;13.97;12.40;;;4.00;99.90;;;;;;4933751;28;20449;-90
2021/05/03 03:39:13;;;;;;;13.40;11.80;;;4.00;99.90;;;;;;4941272;28;20212;-90
2021/05/03 03:41:40;;;;;;;14.80;12.23;;;4.10;99.90;;;;;;4927592;28;20183;-89
2021/05/03 03:44:06;;;;;;;14.90;12.63;;;4.10;99.90;;;;;;4921715;29;20446;-90
2021/05/03 03:46:32;;;;;;;13.60;11.90;;;4.10;99.90;;;;;;4946588;28;20454;-89
2021/05/03 03:48:57;;;;;;;15.63;12.60;;;4.10;99.90;;;;;;4926831;28;20471;-90
2021/05/03 03:51:24;;;;;;;14.67;12.37;;;4.10;99.90;;;;;;4930535;29;21023;-89
2021/05/03 03:53:50;;;;;;;13.77;11.50;;;4.10;99.90;;;;;;4925659;28;20189;-89
2021/05/03 03:56:18;;;;;;;16.40;11.90;;;4.10;99.90;;;;;;4922493;28;20461;-90
2021/05/03 03:58:44;;;;;;;13.33;10.93;;;4.20;99.90;;;;;;4925165;28;20451;-89
2021/05/03 04:01:11;;;;;;;13.80;12.20;;;4.30;99.90;;;;;;4921396;28;20444;-90
2021/05/03 04:03:46;;;;;;;12.30;11.00;;;4.30;99.90;;;;;;4921483;28;20451;-88
2021/05/03 04:06:35;;;;;;;11.73;10.20;;;4.40;99.90;;;;;;4921981;28;20511;-87
2021/05/03 04:09:09;;;;;;;13.00;11.60;;;4.40;99.90;;;;;;4925231;28;20977;-93
2021/05/03 04:25:13;;;;;;;13.63;11.70;;;4.20;99.90;;;;;;4941060;28;20439;-90
2021/05/03 04:27:39;;;;;;;14.57;11.30;;;4.20;99.90;;;;;;4921902;29;20870;-90
2021/05/03 04:30:07;;;;;;;13.70;12.30;;;4.20;99.90;;;;;;4946462;28;20484;-91
2021/05/03 04:32:33;;;;;;;13.37;11.97;;;4.30;99.90;;;;;;4928851;29;21170;-91
2021/05/03 04:34:59;;;;;;;12.30;11.10;;;4.30;99.90;;;;;;4920775;28;20474;-89
2021/05/03 04:37:24;;;;;;;12.53;10.90;;;4.30;99.90;;;;;;4939904;28;20494;-88
2021/05/03 04:39:50;;;;;;;13.10;11.80;;;4.30;99.90;;;;;;4942118;28;20186;-89
2021/05/03 04:42:16;;;;;;;12.43;11.13;;;4.30;99.90;;;;;;4944453;28;20190;-90
2021/05/03 04:44:46;;;;;;;12.10;10.90;;;4.40;99.90;;;;;;4929868;29;20665;-89
2021/05/03 04:47:12;;;;;;;12.60;11.30;;;4.30;99.90;;;;;;4927532;29;20213;-92
2021/05/03 04:49:39;;;;;;;13.43;11.53;;;4.10;99.90;;;;;;4927874;29;20491;-94
2021/05/03 04:52:06;;;;;;;13.00;11.63;;;4.10;99.90;;;;;;4925959;29;20206;-91
2021/05/03 04:54:32;;;;;;;13.93;11.90;;;4.10;99.90;;;;;;4949946;28;20529;-92
2021/05/03 04:56:57;;;;;;;13.60;12.20;;;4.10;99.90;;;;;;4928089;28;20538;-94
2021/05/03 04:59:23;;;;;;;13.83;12.10;;;4.10;99.90;;;;;;4935935;29;20824;-90
2021/05/03 05:01:49;;;;;;;14.80;11.40;;;4.20;99.90;;;;;;4928964;28;20262;-93
2021/05/03 05:04:14;;;;;;;12.13;10.93;;;4.30;99.90;;;;;;4932425;28;20200;-96
2021/05/03 05:06:40;;;;;;;12.13;10.37;;;4.30;99.90;;;;;;4928600;28;20274;-88
2021/05/03 05:09:06;;;;;;;12.97;11.57;;;4.30;99.90;;;;;;4924967;28;20642;-91
2021/05/03 05:11:32;;;;;;;12.40;11.10;;;4.30;99.90;;;;;;4930713;29;20215;-92
2021/05/03 05:13:58;;;;;;;12.80;11.47;;;4.30;99.90;;;;;;4928509;28;20816;-93
2021/05/03 05:16:24;;;;;;;13.23;11.93;;;4.30;99.90;;;;;;4932500;28;20194;-93
2021/05/03 05:18:52;;;;;;;12.77;11.47;;;4.40;99.90;;;;;;4946439;28;20458;-94
2021/05/03 05:21:17;;;;;;;12.30;11.10;;;4.50;99.90;;;;;;4925846;28;20449;-94
2021/05/03 05:23:43;;;;;;;13.03;11.00;;;4.60;99.90;;;;;;4938836;28;20474;-93
2021/05/03 05:26:10;;;;;;;12.57;11.27;;;4.70;99.90;;;;;;4957195;28;20206;-91
2021/05/03 05:28:39;;;;;;;22.33;11.13;;;4.70;99.90;;;;;;4943544;29;20253;-96
2021/05/03 05:31:06;;;;;;;12.70;11.37;;;4.80;99.90;;;;;;4959798;28;20516;-93
2021/05/03 05:33:32;;;;;;;21.80;12.20;;;4.90;99.90;;;;;;4954009;28;20542;-96
2021/05/03 05:35:59;;;;;;;14.43;11.60;;;5.00;99.90;;;;;;4952232;28;20468;-96
2021/05/03 05:38:25;;;;;;;14.87;11.10;;;5.20;99.90;;;;;;4930582;29;20556;-94
2021/05/03 05:40:53;;;;;;;13.50;11.57;;;5.20;99.90;;;;;;4960699;28;20454;-94
2021/05/03 05:43:20;;;;;;;12.20;11.00;;;5.20;99.90;;;;;;4947679;28;20210;-96
2021/05/03 05:45:47;;;;;;;13.43;12.00;;;5.20;99.90;;;;;;4956886;28;20492;-95
2021/05/03 05:48:13;;;;;;;14.17;11.27;;;5.10;99.90;;;;;;4934267;29;20738;-93
2021/05/03 05:50:45;;;;;;;15.03;11.20;;;5.00;99.90;;;;;;4965097;28;20486;-95
2021/05/03 05:53:19;;;;;;;14.30;12.80;;;5.00;99.90;;;;;;4949627;28;20194;-95
2021/05/03 05:55:45;;;;;;;14.23;11.90;;;5.00;99.90;;;;;;4932586;28;20517;-95
2021/05/03 05:58:11;;;;;;;16.50;12.77;;;5.00;99.90;;;;;;4942427;28;20546;-92
2021/05/03 06:00:36;;;;;;;15.50;12.90;;;5.00;99.90;;;;;;4930087;28;20545;-86
2021/05/03 06:03:02;;;;;;;15.10;12.60;;;5.00;99.90;;;;;;4921688;29;20222;-88
2021/05/03 06:05:28;;;;;;;13.53;11.87;;;5.10;99.90;;;;;;4924041;28;20572;-88
2021/05/03 06:07:54;;;;;;;13.40;12.07;;;5.20;99.90;;;;;;4925090;28;20210;-86
2021/05/03 06:10:19;;;;;;;12.70;11.40;;;5.30;99.90;;;;;;4923928;28;20222;-90
2021/05/03 06:12:45;;;;;;;13.17;11.67;;;5.40;99.90;;;;;;4929537;29;20349;-88
2021/05/03 06:15:12;;;;;;;12.07;10.80;;;5.50;99.90;;;;;;4930631;29;20439;-91
2021/05/03 06:17:38;;;;;;;16.80;13.23;;;5.50;99.90;;;;;;4942824;28;20286;-87
2021/05/03 06:20:05;;;;;;;13.80;12.40;;;5.60;99.90;;;;;;4928026;28;20487;-87
2021/05/03 06:22:32;;;;;;;16.70;14.90;;;5.70;99.90;;;;;;4928428;28;20234;-88
2021/05/03 06:25:00;;;;;;;15.90;14.00;;;5.70;99.90;;;;;;4939449;28;20532;-87
2021/05/03 06:27:26;;;;;;;13.47;12.17;;;5.70;99.90;;;;;;4925083;29;20933;-87
2021/05/03 06:29:51;;;;;;;14.57;12.87;;;5.80;99.90;;;;;;4925896;29;20569;-87
2021/05/03 06:32:17;;;;;;;15.67;13.80;;;5.90;99.90;;;;;;4925771;28;20587;-89
2021/05/03 06:34:43;;;;;;;19.03;14.17;;;5.90;99.90;;;;;;4923512;28;20187;-87
2021/05/03 06:37:09;;;;;;;20.27;13.63;;;6.00;99.90;;;;;;4924977;29;20207;-87
2021/05/03 06:39:34;;;;;;;13.80;12.30;;;6.00;99.90;;;;;;4942636;28;20229;-87
2021/05/03 06:42:00;;;;;;;15.13;12.80;;;6.20;99.90;;;;;;4925580;28;20542;-87
2021/05/03 06:44:26;;;;;;;15.27;12.83;;;6.30;99.90;;;;;;4925724;28;20889;-86
2021/05/03 06:46:52;;;;;;;15.10;12.47;;;6.50;99.90;;;;;;4924317;29;20697;-87
2021/05/03 06:49:18;;;;;;;14.03;12.53;;;6.60;99.90;;;;;;4924984;29;20479;-86
2021/05/03 06:51:46;;;;;;;14.27;12.77;;;6.60;99.90;;;;;;4923577;29;20566;-87
2021/05/03 06:54:26;;;;;;;13.73;12.23;;;6.70;99.90;;;;;;4925678;28;20216;-88
2021/05/03 06:56:51;;;;;;;13.10;11.63;;;6.80;99.90;;;;;;4936299;28;20535;-86
2021/05/03 06:59:17;;;;;;;13.17;11.80;;;7.00;99.90;;;;;;4933536;29;20429;-88
2021/05/03 07:01:43;;;;;;;15.20;12.60;;;7.20;99.90;;;;;;4939382;28;20188;-88
2021/05/03 07:04:10;;;;;;;11.73;9.97;;;7.40;99.90;;;;;;4941752;28;20681;-90
2021/05/03 07:06:35;;;;;;;12.90;11.70;;;7.40;99.90;;;;;;4937841;28;20449;-86
2021/05/03 07:09:01;;;;;;;14.70;11.80;;;7.60;99.90;;;;;;4927862;28;20282;-88
2021/05/03 07:11:29;;;;;;;14.23;12.60;;;7.60;99.90;;;;;;4938911;28;20207;-84
2021/05/03 07:13:55;;;;;;;13.20;11.53;;;7.60;99.90;;;;;;4924600;29;20463;-88
2021/05/03 07:16:22;;;;;;;11.53;10.43;;;7.80;99.90;;;;;;4952338;28;20454;-87
2021/05/03 07:18:59;;;;;;;13.17;11.77;;;8.10;99.90;;;;;;4933915;28;20820;-87
2021/05/03 07:21:28;;;;;;;12.63;11.43;;;8.20;99.90;;;;;;4944690;28;20456;-86
2021/05/03 07:23:54;;;;;;;13.00;11.60;;;8.30;99.90;;;;;;4926515;28;20463;-86
2021/05/03 07:26:20;;;;;;;12.43;10.50;;;8.40;99.90;;;;;;4940057;28;20984;-87
2021/05/03 07:28:45;;;;;;;11.70;10.50;;;8.50;99.90;;;;;;4921213;28;20467;-87
2021/05/03 07:31:11;;;;;;;11.20;10.20;;;8.50;99.90;;;;;;4937929;28;20446;-87
2021/05/03 07:33:37;;;;;;;11.37;10.17;;;8.40;99.90;;;;;;4922503;29;20282;-87
2021/05/03 07:36:05;;;;;;;11.90;10.77;;;8.40;99.90;;;;;;4940282;28;20182;-87
2021/05/03 07:38:31;;;;;;;11.37;10.30;;;8.80;99.90;;;;;;4921144;28;20574;-86
2021/05/03 07:40:57;;;;;;;10.90;9.80;;;9.10;99.90;;;;;;4938650;28;20455;-85
2021/05/03 07:43:23;;;;;;;11.47;10.30;;;9.30;99.90;;;;;;4937019;28;20510;-85
2021/05/03 07:45:49;;;;;;;11.30;10.30;;;9.60;99.90;;;;;;4925179;28;20854;-87
2021/05/03 07:48:15;;;;;;;12.07;10.90;;;9.60;99.90;;;;;;4950794;28;20508;-83
2021/05/03 07:50:41;;;;;;;12.00;10.80;;;9.80;99.90;;;;;;4924962;29;20610;-91
2021/05/03 07:53:11;;;;;;;10.10;9.20;;;10.00;99.90;;;;;;4922243;28;20462;-90
2021/05/03 07:55:37;;;;;;;11.40;10.30;;;10.10;99.90;;;;;;4923523;28;20813;-86
2021/05/03 07:58:03;;;;;;;10.20;9.30;;;10.30;99.90;;;;;;4952738;28;20457;-90
2021/05/03 08:00:32;;;;;;;9.53;8.63;;;10.40;99.90;;;;;;4945602;28;20481;-91
2021/05/03 08:02:58;;;;;;;8.30;7.60;;;10.30;99.90;;;;;;4923212;29;20461;-94
2021/05/03 08:05:24;;;;;;;9.03;8.23;;;10.40;99.90;;;;;;4919029;29;20592;-91
2021/05/03 08:07:51;;;;;;;8.67;7.83;;;10.40;99.90;;;;;;4925830;28;20623;-92
2021/05/03 08:10:17;;;;;;;8.60;7.70;;;10.60;99.90;;;;;;4940883;28;20490;-93
2021/05/03 08:12:43;;;;;;;8.70;7.90;;;10.80;99.60;;;;;;4925219;29;20960;-91
2021/05/03 08:15:12;;;;;;;9.23;8.43;;;10.90;99.50;;;;;;4921724;29;20229;-91
2021/05/03 08:17:39;;;;;;;7.90;7.20;;;11.40;99.90;;;;;;4932229;29;20194;-92
2021/05/03 08:20:09;;;;;;;7.80;7.10;;;11.70;98.50;;;;;;4946784;28;20451;-93
2021/05/03 08:22:35;;;;;;;7.63;6.93;;;11.40;95.60;;;;;;4948830;28;20481;-91
2021/05/03 08:25:01;;;;;;;7.70;7.00;;;11.70;95.80;;;;;;4932303;28;20490;-88
2021/05/03 08:27:26;;;;;;;7.20;6.60;;;11.70;93.30;;;;;;4931518;28;20198;-94
2021/05/03 08:29:52;;;;;;;7.53;6.83;;;11.60;94.30;;;;;;4944449;28;20218;-91
2021/05/03 08:32:20;;;;;;;15.53;11.07;;;11.80;95.10;;;;;;4930638;28;20236;-91
2021/05/03 08:34:46;;;;;;;8.70;7.80;;;12.30;93.70;;;;;;4947332;28;20187;-92
2021/05/03 08:37:12;;;;;;;7.83;7.03;;;11.90;93.80;;;;;;4932596;29;20517;-91
2021/05/03 08:39:38;;;;;;;8.43;7.60;;;11.70;94.60;;;;;;4943356;28;20803;-92
2021/05/03 08:42:07;;;;;;;7.60;6.70;;;11.70;94.80;;;;;;4947207;28;20474;-92
2021/05/03 08:44:38;;;;;;;7.57;6.93;;;11.60;95.30;;;;;;4928415;28;20917;-91
2021/05/03 08:53:10;;;;;;;6.10;5.60;;;11.80;95.10;;;;;;4943042;28;20485;-91
2021/05/03 08:55:44;;;;;;;5.53;5.03;;;12.70;92.20;;;;;;4943018;28;20553;-91
2021/05/03 08:58:22;;;;;;;5.37;4.97;;;12.80;82.60;;;;;;4932779;29;20482;-93
2021/05/03 09:00:51;;;;;;;4.97;4.50;;;12.80;78.60;;;;;;4945845;28;21028;-92
2021/05/03 09:03:20;;;;;;;6.50;4.33;;;12.50;74.40;;;;;;4946015;28;20529;-92
2021/05/03 09:05:57;;;;;;;5.00;4.60;;;11.90;74.60;;;;;;4941563;28;20442;-89
2021/05/03 09:08:43;;;;;;;5.93;5.37;;;11.90;76.50;;;;;;4943390;28;20454;-92
2021/05/03 09:11:23;;;;;;;6.80;6.10;;;11.90;78.00;;;;;;4942300;28;20466;-90
2021/05/03 09:14:15;;;;;;;;;;;;;;;;;;;;;
2021/05/03 09:16:51;;;;;;;15.13;8.33;;;11.10;93.60;;;;;;4945846;28;20453;-91
2021/05/03 09:19:19;;;;;;;8.97;8.10;;;11.10;98.00;;;;;;4926592;28;20485;-91
2021/05/03 09:22:03;;;;;;;8.27;7.57;;;10.90;99.90;;;;;;4938442;28;20455;-92
2021/05/03 09:24:56;;;;;;;9.77;8.80;;;10.90;98.00;;;;;;4943880;28;20465;-92
2021/05/03 09:27:22;;;;;;;9.50;8.23;;;11.00;99.30;;;;;;4926914;28;20808;-92
2021/05/03 09:29:49;;;;;;;11.60;9.23;;;11.00;99.80;;;;;;4931175;28;20478;-92
2021/05/03 09:32:19;;;;;;;10.57;9.57;;;11.20;99.90;;;;;;4932990;28;20448;-90
2021/05/03 09:34:53;;;;;;;13.13;9.00;;;11.40;99.90;;;;;;4938804;28;20464;-90
2021/05/03 09:37:19;;;;;;;9.27;8.47;;;11.60;99.40;;;;;;4944341;28;20442;-91
2021/05/03 09:40:09;;;;;;;9.03;8.23;;;11.50;99.90;;;;;;4925579;29;20453;-91
2021/05/03 09:42:55;;;;;;;9.27;8.37;;;11.60;99.20;;;;;;4927060;28;20244;-89
2021/05/03 09:45:23;;;;;;;8.00;7.20;;;11.80;99.70;;;;;;4919161;29;20458;-90
2021/05/03 09:47:57;;;;;;;9.57;8.57;;;11.90;99.10;;;;;;4943391;28;20859;-89
2021/05/03 09:50:34;;;;;;;9.50;8.60;;;11.90;99.50;;;;;;4924891;28;20491;-89
2021/05/03 09:53:03;;;;;;;8.90;8.00;;;11.90;97.60;;;;;;4938221;28;20460;-91
2021/05/03 09:55:41;;;;;;;9.13;8.23;;;12.00;96.70;;;;;;4940296;28;20638;-89
2021/05/03 09:58:23;;;;;;;9.50;8.70;;;12.10;96.80;;;;;;4923882;29;20480;-90
2021/05/03 10:00:51;;;;;;;8.17;7.47;;;12.60;98.00;;;;;;4940002;28;21106;-90
2021/05/03 10:03:45;;;;;;;9.83;8.50;;;12.60;93.00;;;;;;4918133;28;20886;-89
2021/05/03 10:06:20;;;;;;;7.40;6.80;;;12.10;92.20;;;;;;4946408;28;20475;-89
2021/05/03 10:08:50;;;;;;;7.30;6.63;;;12.00;91.50;;;;;;4942143;28;21023;-89
2021/05/03 10:11:17;;;;;;;7.67;6.90;;;12.00;90.50;;;;;;4924040;29;21093;-89
2021/05/03 10:13:48;;;;;;;7.97;6.50;;;11.80;89.20;;;;;;4924403;29;20474;-90
2021/05/03 10:16:21;;;;;;;6.37;5.80;;;11.70;90.50;;;;;;4942091;28;20453;-89
2021/05/03 10:18:50;;;;;;;6.37;5.77;;;11.50;90.00;;;;;;4947521;28;20494;-89
2021/05/03 10:21:15;;;;;;;8.97;7.10;;;11.60;89.20;;;;;;4926388;29;20454;-89
2021/05/03 10:23:45;;;;;;;7.63;6.50;;;12.10;90.00;;;;;;4928460;28;20458;-91
2021/05/03 10:26:14;;;;;;;7.47;6.77;;;12.60;90.20;;;;;;4946164;28;20202;-90
2021/05/03 10:28:57;;;;;;;7.77;6.63;;;13.30;86.80;;;;;;4942899;28;20970;-91
2021/05/03 10:31:27;;;;;;;6.40;5.80;;;14.00;85.80;;;;;;4941446;28;20864;-91
2021/05/03 10:33:56;;;;;;;6.47;5.87;;;13.80;78.70;;;;;;4926856;29;21513;-91
2021/05/03 10:36:31;;;;;;;7.00;6.40;;;14.00;86.10;;;;;;4927694;29;20486;-90
2021/05/03 10:39:21;;;;;;;6.87;6.27;;;13.60;80.20;;;;;;4941632;28;20452;-90
2021/05/03 10:42:03;;;;;;;6.50;5.90;;;13.60;84.10;;;;;;4941163;28;20465;-91
2021/05/03 10:44:38;;;;;;;6.60;6.10;;;13.70;84.20;;;;;;4941239;28;20505;-90
2021/05/03 10:50:38;;;;;;;7.50;6.40;;;12.50;84.60;;;;;;4882264;29;20497;-90
2021/05/03 10:53:28;;;;;;;6.20;5.70;;;12.50;82.70;;;;;;4936595;28;20447;-91
2021/05/03 10:55:59;;;;;;;6.17;5.67;;;12.90;85.60;;;;;;4925841;29;21178;-92
2021/05/03 10:59:01;;;;;;;5.77;5.37;;;13.20;85.90;;;;;;4935896;29;20446;-91
2021/05/03 11:01:55;;;;;;;5.60;5.20;;;13.60;85.60;;;;;;4925377;28;20443;-90
2021/05/03 11:04:26;;;;;;;5.97;5.37;;;13.90;80.30;;;;;;4939960;28;20508;-90
2021/05/03 11:06:54;;;;;;;5.50;5.00;;;13.10;74.50;;;;;;4942118;28;20461;-90
2021/05/03 11:09:29;;;;;;;6.40;4.77;;;13.10;79.00;;;;;;4944423;28;20478;-90
2021/05/03 11:12:05;;;;;;;6.47;5.87;;;13.60;73.90;;;;;;4934155;28;20963;-91
2021/05/03 11:14:34;;;;;;;6.47;5.87;;;14.40;71.60;;;;;;4946952;28;20802;-91
2021/05/03 11:17:10;;;;;;;6.40;5.80;;;14.70;69.20;;;;;;4955630;28;20461;-91
2021/05/03 11:20:14;;;;;;;5.70;5.20;;;15.40;74.10;;;;;;4947185;28;20438;-91
2021/05/03 11:23:02;;;;;;;5.93;5.53;;;15.90;66.10;;;;;;4946479;28;20430;-91
2021/05/03 11:25:37;;;;;;;6.30;5.20;;;16.40;59.00;;;;;;4926871;28;20795;-91
2021/05/03 11:28:17;;;;;;;5.90;5.40;;;16.50;61.10;;;;;;4937868;28;20455;-90
2021/05/03 11:31:02;;;;;;;5.00;4.60;;;16.30;56.70;;;;;;4931248;28;20667;-90
2021/05/03 11:33:45;;;;;;;4.87;4.47;;;15.30;55.60;;;;;;4922681;29;20465;-91
2021/05/03 11:36:30;;;;;;;4.57;4.17;;;14.80;56.40;;;;;;4943029;28;20874;-91
2021/05/03 11:39:27;;;;;;;5.17;3.50;;;14.20;57.00;;;;;;4935518;28;20466;-90
2021/05/03 11:44:50;;;;;;;3.30;3.10;;;13.20;53.20;;;;;;4941733;28;20482;-91
2021/05/03 11:47:16;;;;;;;4.20;3.80;;;13.20;53.20;;;;;;4921639;29;21031;-89
2021/05/03 11:49:44;;;;;;;3.43;3.13;;;13.40;55.60;;;;;;4927071;28;20482;-89
2021/05/03 11:52:11;;;;;;;4.47;3.83;;;13.40;57.40;;;;;;4936670;28;20653;-91
2021/05/03 11:54:43;;;;;;;4.13;3.80;;;13.80;57.70;;;;;;4924023;28;20451;-92
2021/05/03 11:57:16;;;;;;;4.20;3.90;;;14.90;55.50;;;;;;4942597;28;20427;-88
2021/05/03 11:59:48;;;;;;;4.10;3.70;;;15.00;54.30;;;;;;4938013;28;20561;-90
2021/05/03 12:02:17;;;;;;;3.83;3.53;;;15.10;55.20;;;;;;4943280;28;20446;-89
2021/05/03 12:05:02;;;;;;;3.63;3.33;;;15.10;54.10;;;;;;4929447;28;20443;-91
2021/05/03 12:07:32;;;;;;;3.50;3.20;;;14.60;52.60;;;;;;4940100;28;20505;-90
2021/05/03 12:10:19;;;;;;;4.03;3.20;;;14.70;52.00;;;;;;4944348;28;20489;-90
2021/05/03 12:12:53;;;;;;;4.10;3.80;;;14.50;52.40;;;;;;4937358;28;20462;-92
2021/05/03 12:15:28;;;;;;;4.13;3.70;;;14.80;51.30;;;;;;4941103;28;20465;-91
2021/05/03 12:20:37;;;;;;;3.47;3.27;;;14.70;49.90;;;;;;4943152;28;20854;-90
2021/05/03 12:23:05;;;;;;;4.13;3.50;;;14.50;51.50;;;;;;4924377;29;20461;-91
2021/05/03 12:28:11;;;;;;;3.27;3.07;;;14.50;53.90;;;;;;4941905;28;20450;-93
2021/05/03 12:31:02;;;;;;;3.07;2.87;;;14.80;51.90;;;;;;4943688;28;20991;-90
2021/05/03 12:33:28;;;;;;;3.07;2.87;;;14.10;50.20;;;;;;4912002;28;20465;-90
2021/05/03 12:36:33;;;;;;;13.03;7.10;;;14.00;50.40;;;;;;4927808;28;20454;-96
2021/05/03 12:39:09;;;;;;;5.50;5.00;;;14.40;50.00;;;;;;4956793;28;20450;-96
2021/05/03 12:41:37;;;;;;;3.60;3.40;;;15.10;49.40;;;;;;4941927;28;20461;-96
2021/05/03 12:44:04;;;;;;;3.30;3.00;;;15.40;48.70;;;;;;4933920;29;20465;-96
2021/05/03 12:46:34;;;;;;;3.23;3.03;;;15.60;50.20;;;;;;4946094;28;20546;-91
2021/05/03 12:49:11;;;;;;;4.83;4.33;;;14.70;49.60;;;;;;4928573;28;20466;-93
2021/05/03 12:51:50;;;;;;;9.97;5.80;;;14.70;50.90;;;;;;4935942;28;20449;-91
2021/05/03 12:56:53;;;;;;;22.13;13.30;;;15.90;46.50;;;;;;4944336;28;20449;-92
2021/05/03 12:59:33;;;;;;;4.30;3.90;;;15.30;47.30;;;;;;4937795;28;20889;-91
2021/05/03 13:29:58;;;;;;;3.00;2.80;;;15.60;49.90;;;;;;4941488;28;21393;-93
2021/05/03 13:32:42;;;;;;;2.83;2.63;;;16.10;47.80;;;;;;4924006;28;20470;-93
2021/05/03 13:35:32;;;;;;;2.63;2.43;;;15.90;45.60;;;;;;4945902;28;20453;-94
2021/05/03 13:37:58;;;;;;;3.10;2.80;;;16.40;45.20;;;;;;4926561;29;20454;-94
2021/05/03 13:40:23;;;;;;;2.73;2.53;;;16.50;45.80;;;;;;4930300;29;20453;-93
2021/05/03 13:42:55;;;;;;;2.67;2.47;;;15.80;43.50;;;;;;4945295;28;20206;-94
2021/05/03 13:45:22;;;;;;;3.53;3.20;;;15.30;43.80;;;;;;4944100;28;20195;-94
2021/05/03 13:47:52;;;;;;;3.60;3.13;;;15.50;45.80;;;;;;4927417;28;20446;-95
2021/05/03 13:50:18;;;;;;;5.20;3.13;;;18.60;43.60;;;;;;4925490;28;20526;-96
2021/05/03 13:52:49;;;;;;;4.10;2.50;;;20.10;40.40;;;;;;4933588;28;20477;-93
2021/05/03 13:55:21;;;;;;;9.63;3.37;;;18.90;39.90;;;;;;4921858;29;20809;-94
2021/05/03 13:57:48;;;;;;;3.50;2.50;;;16.90;42.90;;;;;;4923981;28;20520;-89
2021/05/03 14:00:15;;;;;;;2.20;2.03;;;15.40;41.40;;;;;;4931995;28;20666;-90
2021/05/03 14:02:41;;;;;;;3.40;2.30;;;15.00;42.20;;;;;;4917371;28;20534;-93